Time;durP1;ratioP1;P1;durP2;ratioP2;P2;SDS_P1;SDS_P2;PMS_P1;PMS_P2;Temp;Humidity;BMP_temperature;BMP_pressure;BME280_temperature;BME280_humidity;BME280_pressure;Samples;Min_cycle;Max_cycle;Signal;HPM_P1;HPM_P2
2022/04/01 00:00:10;;;;;;;9.97;5.73;;;0.70;99.90;;;;;;5038578;28;20190;-79
2022/04/01 00:02:36;;;;;;;9.70;5.73;;;0.70;99.90;;;;;;5040606;28;20292;-80
2022/04/01 00:05:02;;;;;;;10.17;5.77;;;0.80;99.90;;;;;;5041309;28;20201;-80
2022/04/01 00:07:29;;;;;;;9.20;5.43;;;0.70;99.90;;;;;;5039107;28;20653;-79
2022/04/01 00:09:54;;;;;;;8.30;5.27;;;0.60;99.90;;;;;;5039536;28;20204;-79
2022/04/01 00:12:20;;;;;;;7.97;5.10;;;0.70;99.90;;;;;;5039839;28;20261;-79
2022/04/01 00:14:45;;;;;;;8.97;5.77;;;0.70;99.90;;;;;;5040137;28;20166;-78
2022/04/01 00:17:11;;;;;;;10.70;5.30;;;0.70;99.90;;;;;;5036485;28;20564;-79
2022/04/01 00:19:37;;;;;;;9.37;4.97;;;0.70;99.90;;;;;;5036803;28;20683;-79
2022/04/01 00:22:04;;;;;;;6.97;4.40;;;0.70;99.90;;;;;;5036845;28;20176;-80
2022/04/01 00:24:30;;;;;;;8.20;4.90;;;0.70;99.90;;;;;;5036700;28;20293;-80
2022/04/01 00:26:56;;;;;;;8.53;3.93;;;0.60;99.90;;;;;;5037914;28;20205;-79
2022/04/01 00:29:22;;;;;;;14.50;5.40;;;0.60;99.90;;;;;;5036295;28;20200;-79
2022/04/01 00:31:49;;;;;;;9.43;5.90;;;0.70;99.90;;;;;;5036242;28;20182;-78
2022/04/01 00:34:16;;;;;;;10.07;5.57;;;0.70;99.90;;;;;;5035988;28;20629;-79
2022/04/01 00:36:47;;;;;;;10.10;5.50;;;0.70;99.90;;;;;;5036123;28;20691;-80
2022/04/01 00:39:14;;;;;;;11.33;6.27;;;0.50;99.90;;;;;;5036986;28;20202;-80
2022/04/01 00:41:40;;;;;;;8.43;5.13;;;0.70;99.90;;;;;;5035547;28;20552;-79
2022/04/01 00:44:18;;;;;;;10.87;6.33;;;0.60;99.90;;;;;;5035742;28;20211;-78
2022/04/01 00:46:56;;;;;;;8.93;6.10;;;0.60;99.90;;;;;;5035604;28;20189;-79
2022/04/01 00:49:23;;;;;;;9.90;6.33;;;0.60;99.90;;;;;;5035327;28;20748;-79
2022/04/01 00:51:50;;;;;;;11.30;6.13;;;0.60;99.90;;;;;;5035129;28;20200;-79
2022/04/01 00:54:16;;;;;;;10.20;6.03;;;0.60;99.90;;;;;;5035975;28;20182;-79
2022/04/01 00:56:43;;;;;;;12.20;6.40;;;0.70;99.90;;;;;;5035992;28;20188;-79
2022/04/01 00:59:09;;;;;;;9.43;6.30;;;0.70;99.90;;;;;;5035580;28;20200;-80
2022/04/01 01:01:36;;;;;;;11.37;7.20;;;0.70;99.90;;;;;;5036173;28;20174;-79
2022/04/01 01:04:02;;;;;;;12.83;7.30;;;0.60;99.90;;;;;;5035380;28;20197;-77
2022/04/01 01:06:30;;;;;;;12.93;7.57;;;0.70;99.90;;;;;;5035643;28;20188;-78
2022/04/01 01:08:57;;;;;;;17.03;9.83;;;0.50;99.90;;;;;;5035519;28;20193;-78
2022/04/01 01:11:24;;;;;;;18.40;9.57;;;0.60;99.90;;;;;;5035420;28;20208;-77
2022/04/01 01:13:51;;;;;;;15.37;8.43;;;0.60;99.90;;;;;;5035411;28;20617;-78
2022/04/01 01:16:17;;;;;;;16.60;8.93;;;0.60;99.90;;;;;;5035106;28;20238;-78
2022/04/01 01:18:43;;;;;;;18.30;9.40;;;0.60;99.90;;;;;;5034504;28;20207;-77
2022/04/01 01:21:09;;;;;;;19.20;10.57;;;0.60;99.90;;;;;;5034256;28;20185;-77
2022/04/01 01:23:37;;;;;;;20.10;10.63;;;0.50;99.90;;;;;;5034914;28;20217;-78
2022/04/01 01:26:03;;;;;;;25.10;11.17;;;0.60;99.90;;;;;;5034907;28;20177;-77
2022/04/01 01:28:29;;;;;;;18.30;9.60;;;0.60;99.90;;;;;;5034772;28;20184;-77
2022/04/01 01:30:55;;;;;;;17.37;9.00;;;0.60;99.90;;;;;;5034661;28;20169;-78
2022/04/01 01:33:24;;;;;;;28.37;11.60;;;0.60;99.90;;;;;;5034556;28;20234;-77
2022/04/01 01:35:49;;;;;;;18.90;10.77;;;0.60;99.90;;;;;;5034737;28;20177;-77
2022/04/01 01:38:19;;;;;;;19.73;10.40;;;0.50;99.90;;;;;;5034678;28;20270;-77
2022/04/01 01:40:45;;;;;;;20.50;10.57;;;0.50;99.90;;;;;;5034244;28;20551;-77
2022/04/01 01:43:12;;;;;;;17.53;9.93;;;0.50;99.90;;;;;;5034182;28;20205;-77
2022/04/01 01:45:37;;;;;;;20.67;11.30;;;0.50;99.90;;;;;;5034315;28;20177;-77
2022/04/01 01:48:04;;;;;;;18.80;10.27;;;0.50;99.90;;;;;;5034039;28;20645;-78
2022/04/01 01:55:57;;;;;;;20.17;11.07;;;0.50;99.90;;;;;;5051821;28;20184;-79
2022/04/01 01:58:23;;;;;;;18.23;10.00;;;0.50;99.90;;;;;;5051954;28;20178;-79
2022/04/01 02:00:49;;;;;;;13.97;7.47;;;0.40;99.90;;;;;;5033985;28;20184;-80
2022/04/01 02:03:15;;;;;;;16.20;9.27;;;0.40;99.90;;;;;;5033679;28;20212;-80
2022/04/01 02:05:41;;;;;;;17.67;9.63;;;0.50;99.90;;;;;;5033802;28;20553;-80
2022/04/01 02:08:07;;;;;;;16.37;9.30;;;0.40;99.90;;;;;;5034036;28;20253;-80
2022/04/01 02:10:33;;;;;;;14.97;8.80;;;0.50;99.90;;;;;;5034085;28;20658;-78
2022/04/01 02:12:58;;;;;;;13.00;7.53;;;0.40;99.90;;;;;;5033953;28;20701;-78
2022/04/01 02:15:25;;;;;;;13.37;7.57;;;0.40;99.90;;;;;;5034114;28;20272;-79
2022/04/01 02:17:50;;;;;;;14.77;7.93;;;0.40;99.90;;;;;;5051848;28;20174;-78
2022/04/01 02:20:16;;;;;;;10.30;6.10;;;0.40;99.90;;;;;;5033758;28;20316;-78
2022/04/01 02:22:43;;;;;;;9.07;6.40;;;0.40;99.90;;;;;;5033770;28;20752;-78
2022/04/01 02:25:13;;;;;;;11.27;6.00;;;0.40;99.90;;;;;;5034064;28;20177;-80
2022/04/01 02:27:39;;;;;;;11.20;6.23;;;0.40;99.90;;;;;;5034039;28;20169;-79
2022/04/01 02:30:12;;;;;;;8.53;5.87;;;0.40;99.90;;;;;;5033806;28;20657;-79
2022/04/01 02:32:42;;;;;;;11.17;6.50;;;0.30;99.90;;;;;;5033764;28;20216;-79
2022/04/01 02:35:08;;;;;;;9.57;5.70;;;0.40;99.90;;;;;;5033762;28;20177;-78
2022/04/01 02:37:35;;;;;;;10.10;5.40;;;0.40;99.90;;;;;;5034127;28;20261;-78
2022/04/01 02:40:03;;;;;;;11.47;6.00;;;0.30;99.90;;;;;;5033745;28;20284;-79
2022/04/01 02:42:28;;;;;;;9.47;5.50;;;0.30;99.90;;;;;;5033529;28;20564;-79
2022/04/01 02:44:54;;;;;;;10.20;5.50;;;0.40;99.90;;;;;;5033927;28;20185;-79
2022/04/01 02:47:20;;;;;;;12.80;5.77;;;0.40;99.90;;;;;;5033755;28;20222;-79
2022/04/01 02:49:46;;;;;;;9.47;4.37;;;0.40;99.90;;;;;;5033751;28;20227;-80
2022/04/01 02:52:11;;;;;;;10.60;5.80;;;0.30;99.90;;;;;;5033457;28;20690;-78
2022/04/01 02:54:37;;;;;;;10.73;6.13;;;0.40;99.90;;;;;;5033788;28;20184;-78
2022/04/01 02:57:03;;;;;;;10.70;6.83;;;0.30;99.90;;;;;;5033779;28;20177;-78
2022/04/01 02:59:29;;;;;;;10.80;6.20;;;0.30;99.90;;;;;;5033830;28;20671;-78
2022/04/01 03:01:55;;;;;;;12.20;7.47;;;0.30;99.90;;;;;;5033495;28;20181;-79
2022/04/01 03:04:21;;;;;;;10.93;6.00;;;0.30;99.90;;;;;;5033594;28;20299;-79
2022/04/01 03:06:47;;;;;;;12.10;7.33;;;0.30;99.90;;;;;;5034057;28;20387;-79
2022/04/01 03:09:14;;;;;;;12.67;8.10;;;0.30;99.90;;;;;;5037471;28;20283;-79
2022/04/01 03:11:41;;;;;;;14.10;8.53;;;0.30;99.90;;;;;;5037618;28;20170;-79
2022/04/01 03:14:09;;;;;;;18.03;8.50;;;0.30;99.90;;;;;;5038215;28;20181;-80
2022/04/01 03:16:37;;;;;;;13.97;7.73;;;0.30;99.90;;;;;;5038375;28;20634;-80
2022/04/01 03:19:04;;;;;;;14.90;7.90;;;0.30;99.90;;;;;;5038900;28;20228;-80
2022/04/01 03:21:30;;;;;;;15.63;8.03;;;0.20;99.90;;;;;;5039172;28;20200;-80
2022/04/01 03:23:56;;;;;;;13.33;7.23;;;0.20;99.90;;;;;;5038733;28;20592;-80
2022/04/01 03:26:22;;;;;;;13.83;6.37;;;0.30;99.90;;;;;;5038507;28;20170;-79
2022/04/01 03:28:48;;;;;;;8.10;5.70;;;0.20;99.90;;;;;;5038403;28;20258;-79
2022/04/01 03:31:15;;;;;;;10.90;5.87;;;0.20;99.90;;;;;;5038473;28;20222;-78
2022/04/01 03:33:41;;;;;;;12.83;5.93;;;0.20;99.90;;;;;;5038528;28;20177;-79
2022/04/01 03:36:10;;;;;;;11.60;5.77;;;0.20;99.90;;;;;;5038442;28;20184;-80
2022/04/01 03:38:36;;;;;;;8.73;5.13;;;0.20;99.90;;;;;;5037753;28;20193;-79
2022/04/01 03:41:05;;;;;;;8.13;4.80;;;0.10;99.90;;;;;;5037928;28;20193;-81
2022/04/01 03:43:34;;;;;;;9.23;5.27;;;0.10;99.90;;;;;;5037490;28;20196;-78
2022/04/01 03:46:08;;;;;;;9.83;5.23;;;0.10;99.90;;;;;;5037677;28;20678;-79
2022/04/01 03:48:38;;;;;;;8.13;4.93;;;0.20;99.90;;;;;;5037555;28;20181;-80
2022/04/01 03:51:04;;;;;;;13.10;5.00;;;0.10;99.90;;;;;;5037435;28;20158;-80
2022/04/01 03:53:33;;;;;;;10.10;4.87;;;0.10;99.90;;;;;;5037705;28;20182;-79
2022/04/01 03:56:00;;;;;;;7.53;4.73;;;0.10;99.90;;;;;;5055325;28;20169;-79
2022/04/01 03:58:29;;;;;;;9.07;5.03;;;0.10;99.90;;;;;;5036821;28;20264;-81
2022/04/01 04:00:56;;;;;;;8.00;4.63;;;0.10;99.90;;;;;;5037185;28;20189;-79
2022/04/01 04:03:23;;;;;;;8.80;4.83;;;0.10;99.90;;;;;;5037202;28;20231;-80
2022/04/01 04:05:50;;;;;;;7.23;4.50;;;0.10;99.90;;;;;;5036890;28;20212;-80
2022/04/01 04:08:18;;;;;;;5.23;3.50;;;0.10;99.90;;;;;;5036871;28;20173;-80
2022/04/01 04:10:46;;;;;;;8.87;4.50;;;0.00;99.90;;;;;;5036130;28;20193;-79
2022/04/01 04:13:13;;;;;;;5.40;3.60;;;0.10;99.90;;;;;;5036304;28;20299;-79
2022/04/01 04:16:19;;;;;;;4.47;3.30;;;0.10;99.90;;;;;;5036089;28;20180;-78
2022/04/01 04:18:52;;;;;;;4.20;2.93;;;0.10;99.90;;;;;;5034212;28;20205;-79
2022/04/01 04:21:18;;;;;;;5.23;3.40;;;0.00;99.90;;;;;;5035284;28;20258;-79
2022/04/01 04:23:46;;;;;;;5.00;3.30;;;0.00;99.90;;;;;;5035100;28;20205;-79
2022/04/01 04:26:16;;;;;;;6.43;3.23;;;0.00;99.90;;;;;;5035612;28;20184;-79
2022/04/01 04:28:48;;;;;;;5.77;3.63;;;0.10;99.90;;;;;;5035659;28;20180;-79
2022/04/01 04:31:14;;;;;;;5.60;4.00;;;0.10;99.90;;;;;;5035326;28;20294;-79
2022/04/01 04:33:45;;;;;;;5.60;3.23;;;0.10;99.90;;;;;;5035992;28;20188;-77
2022/04/01 04:36:17;;;;;;;5.90;3.47;;;0.10;99.90;;;;;;5035663;28;20184;-79
2022/04/01 04:38:46;;;;;;;4.93;3.37;;;0.10;99.90;;;;;;5035558;28;20260;-78
2022/04/01 04:41:12;;;;;;;7.30;3.47;;;0.10;99.90;;;;;;5035385;28;20176;-79
2022/04/01 04:43:41;;;;;;;8.30;4.17;;;0.00;99.90;;;;;;5035410;28;20208;-79
2022/04/01 04:46:08;;;;;;;9.70;3.90;;;0.10;99.90;;;;;;5035334;28;20177;-79
2022/04/01 04:48:35;;;;;;;6.13;3.03;;;0.10;99.90;;;;;;5035304;28;20188;-78
2022/04/01 04:51:03;;;;;;;5.27;3.27;;;0.10;99.90;;;;;;5035378;28;20174;-82
2022/04/01 04:53:31;;;;;;;5.40;3.20;;;0.10;99.90;;;;;;5035216;28;20209;-78
2022/04/01 04:56:02;;;;;;;4.43;3.13;;;0.10;99.90;;;;;;5035228;28;20231;-80
2022/04/01 04:58:33;;;;;;;5.03;3.37;;;0.10;99.90;;;;;;5035041;28;20272;-79
2022/04/01 05:01:07;;;;;;;5.53;3.47;;;0.10;99.90;;;;;;5035423;28;20551;-80
2022/04/01 05:04:00;;;;;;;5.17;3.60;;;0.00;99.90;;;;;;5035150;28;20756;-79
2022/04/01 05:06:29;;;;;;;8.47;3.40;;;0.00;99.90;;;;;;5022877;28;20188;-79
2022/04/01 05:09:18;;;;;;;7.23;3.60;;;0.10;99.90;;;;;;5035281;28;20289;-79
2022/04/01 05:11:52;;;;;;;9.90;4.00;;;0.10;99.90;;;;;;5035027;28;20580;-80
2022/04/01 05:14:20;;;;;;;5.80;3.03;;;0.10;99.90;;;;;;5034985;28;20201;-79
2022/04/01 05:16:57;;;;;;;7.47;3.80;;;0.00;99.90;;;;;;5034629;28;20192;-79
2022/04/01 05:19:32;;;;;;;6.93;4.17;;;0.10;99.90;;;;;;5035013;28;20193;-79
2022/04/01 05:22:10;;;;;;;7.03;3.90;;;0.10;99.90;;;;;;5034770;28;20633;-78
2022/04/01 05:24:42;;;;;;;6.23;3.90;;;0.10;99.90;;;;;;5034867;28;20262;-78
2022/04/01 05:27:30;;;;;;;9.30;3.90;;;0.10;99.90;;;;;;5034614;28;20173;-79
2022/04/01 05:30:13;;;;;;;6.37;3.90;;;0.10;99.90;;;;;;5034093;28;20839;-79
2022/04/01 05:32:40;;;;;;;6.73;4.13;;;0.10;99.90;;;;;;5034601;28;20211;-79
2022/04/01 05:35:07;;;;;;;6.83;3.93;;;0.10;99.90;;;;;;5034832;28;20184;-81
2022/04/01 05:37:35;;;;;;;7.30;4.20;;;0.00;99.90;;;;;;5034913;28;20256;-78
2022/04/01 05:40:05;;;;;;;9.97;4.50;;;0.10;99.90;;;;;;5034524;28;20197;-81
2022/04/01 05:42:32;;;;;;;5.30;2.47;;;0.00;99.90;;;;;;5034389;28;20165;-79
2022/04/01 05:44:59;;;;;;;5.03;3.30;;;0.00;99.90;;;;;;5034804;28;20173;-77
2022/04/01 05:47:27;;;;;;;7.77;3.73;;;0.00;99.90;;;;;;5034867;28;20545;-78
2022/04/01 05:49:57;;;;;;;5.43;3.40;;;0.00;99.90;;;;;;5035204;28;20240;-78
2022/04/01 05:52:23;;;;;;;5.70;3.97;;;0.00;99.90;;;;;;5034460;28;20595;-80
2022/04/01 05:54:49;;;;;;;7.53;3.83;;;0.10;99.90;;;;;;5052474;28;20253;-79
2022/04/01 05:57:18;;;;;;;6.83;3.63;;;0.10;99.90;;;;;;5034371;28;20223;-79
2022/04/01 05:59:43;;;;;;;9.80;3.90;;;0.10;99.90;;;;;;5034377;28;20197;-78
2022/04/01 06:02:24;;;;;;;10.80;4.20;;;0.10;99.90;;;;;;5033922;28;20656;-78
2022/04/01 06:05:19;;;;;;;9.80;3.53;;;0.10;99.90;;;;;;5034162;28;20559;-78
2022/04/01 06:07:59;;;;;;;11.07;3.67;;;0.10;99.90;;;;;;5034128;28;20633;-75
2022/04/01 06:10:34;;;;;;;10.63;4.10;;;0.20;99.90;;;;;;5033960;28;20192;-76
2022/04/01 06:13:09;;;;;;;6.10;3.67;;;0.20;99.90;;;;;;5033852;28;20683;-75
2022/04/01 06:16:08;;;;;;;9.30;3.97;;;0.20;99.90;;;;;;5034061;28;20179;-75
2022/04/01 06:19:06;;;;;;;5.90;3.60;;;0.20;99.90;;;;;;5033843;28;20176;-76
2022/04/01 06:21:52;;;;;;;9.43;4.53;;;0.20;99.90;;;;;;5033412;28;20230;-76
2022/04/01 06:24:44;;;;;;;7.60;4.10;;;0.20;99.90;;;;;;5017845;28;20211;-77
2022/04/01 06:27:13;;;;;;;7.27;3.07;;;0.30;99.90;;;;;;5033888;28;20165;-77
2022/04/01 06:29:47;;;;;;;5.60;3.67;;;0.20;99.90;;;;;;5033870;28;20193;-77
2022/04/01 06:32:42;;;;;;;9.60;4.50;;;0.20;99.90;;;;;;5033752;28;20166;-76
2022/04/01 06:35:18;;;;;;;5.80;3.27;;;0.20;99.90;;;;;;4980208;28;20278;-75
2022/04/01 06:37:55;;;;;;;8.50;3.83;;;0.20;99.90;;;;;;5033827;28;20192;-78
2022/04/01 06:40:23;;;;;;;5.37;3.17;;;0.30;99.90;;;;;;5033808;28;20197;-77
2022/04/01 06:42:51;;;;;;;8.40;3.77;;;0.20;99.90;;;;;;5036357;28;20183;-76
2022/04/01 06:45:17;;;;;;;10.60;3.80;;;0.20;99.90;;;;;;5037575;28;20575;-76
2022/04/01 06:47:45;;;;;;;7.47;3.73;;;0.20;99.90;;;;;;5037809;28;20185;-76
2022/04/01 06:50:12;;;;;;;8.10;3.73;;;0.30;99.90;;;;;;5037483;28;20295;-76
2022/04/01 06:52:39;;;;;;;6.60;2.80;;;0.20;99.90;;;;;;5037517;28;20243;-76
2022/04/01 06:55:08;;;;;;;6.70;3.97;;;0.10;99.90;;;;;;5037477;28;20638;-76
2022/04/01 06:57:34;;;;;;;5.97;3.30;;;0.20;99.90;;;;;;5037413;28;20272;-76
2022/04/01 06:59:59;;;;;;;5.33;2.80;;;0.20;99.90;;;;;;5037263;28;20193;-76
2022/04/01 07:02:25;;;;;;;9.97;4.67;;;0.20;99.90;;;;;;5037007;28;20219;-76
2022/04/01 07:04:51;;;;;;;9.00;4.10;;;0.20;99.90;;;;;;5036903;28;20209;-77
2022/04/01 07:07:18;;;;;;;6.33;3.87;;;0.40;99.90;;;;;;5037136;28;20268;-77
2022/04/01 07:09:44;;;;;;;4.53;3.00;;;0.30;99.90;;;;;;5036626;28;20691;-76
2022/04/01 07:12:09;;;;;;;6.57;3.83;;;0.30;99.90;;;;;;5037060;28;20169;-77
2022/04/01 07:14:35;;;;;;;10.80;3.57;;;0.30;99.90;;;;;;5035757;28;20183;-78
2022/04/01 07:17:01;;;;;;;7.20;4.27;;;0.40;99.90;;;;;;5036871;28;20177;-76
2022/04/01 07:19:27;;;;;;;6.20;2.67;;;0.40;99.90;;;;;;5035940;28;20291;-77
2022/04/01 07:21:53;;;;;;;6.80;3.53;;;0.30;99.90;;;;;;5036410;28;20182;-77
2022/04/01 07:24:19;;;;;;;9.30;4.33;;;0.30;99.90;;;;;;5036647;28;20714;-77
2022/04/01 07:26:46;;;;;;;8.00;3.73;;;0.30;99.90;;;;;;5036723;28;20170;-78
2022/04/01 07:29:12;;;;;;;9.53;4.20;;;0.30;99.90;;;;;;5036749;28;20205;-77
2022/04/01 07:34:34;;;;;;;5.53;3.30;;;0.30;99.90;;;;;;5054618;28;20228;-77
2022/04/01 07:37:00;;;;;;;7.43;4.23;;;0.30;99.90;;;;;;5036415;28;20590;-78
2022/04/01 07:39:26;;;;;;;8.37;3.17;;;0.30;99.90;;;;;;5036368;28;20232;-77
2022/04/01 07:41:52;;;;;;;5.23;2.87;;;0.30;99.90;;;;;;5036141;28;20204;-76
2022/04/01 07:44:18;;;;;;;7.43;3.67;;;0.20;99.90;;;;;;5036203;28;20680;-77
2022/04/01 07:46:43;;;;;;;9.43;3.17;;;0.30;99.90;;;;;;5036613;28;20200;-76
2022/04/01 07:49:09;;;;;;;9.20;3.43;;;0.30;99.90;;;;;;5036091;28;20208;-76
2022/04/01 07:51:35;;;;;;;9.63;3.37;;;0.30;99.90;;;;;;5036173;28;20188;-77
2022/04/01 07:54:01;;;;;;;7.80;4.00;;;0.30;99.90;;;;;;5035361;28;20177;-76
2022/04/01 07:56:30;;;;;;;7.67;4.30;;;0.40;99.90;;;;;;5036067;28;20173;-77
2022/04/01 07:58:59;;;;;;;9.67;3.83;;;0.30;99.90;;;;;;5035982;28;20193;-78
2022/04/01 08:01:26;;;;;;;10.30;4.33;;;0.20;99.90;;;;;;5035781;28;20181;-77
2022/04/01 08:03:51;;;;;;;8.60;3.80;;;0.30;99.90;;;;;;5036043;28;20205;-77
2022/04/01 08:06:17;;;;;;;8.70;3.97;;;0.20;99.90;;;;;;5035987;28;20338;-77
2022/04/01 08:08:43;;;;;;;10.73;4.07;;;0.20;99.90;;;;;;5035623;28;20197;-78
2022/04/01 08:11:08;;;;;;;7.20;3.93;;;0.30;99.90;;;;;;5035422;28;20235;-77
2022/04/01 08:13:34;;;;;;;4.90;3.53;;;0.20;99.90;;;;;;5035846;28;20600;-76
2022/04/01 08:16:01;;;;;;;9.70;4.10;;;0.20;99.90;;;;;;5035920;28;20634;-76
2022/04/01 08:18:27;;;;;;;9.23;4.40;;;0.20;99.90;;;;;;5035658;28;20231;-76
2022/04/01 08:20:53;;;;;;;9.10;3.87;;;0.20;99.90;;;;;;5035880;28;20192;-77
2022/04/01 08:23:19;;;;;;;7.33;4.37;;;0.10;99.90;;;;;;5052911;28;20608;-78
2022/04/01 08:25:46;;;;;;;7.27;3.90;;;0.20;99.90;;;;;;5035579;28;20177;-76
2022/04/01 08:28:12;;;;;;;5.37;3.23;;;0.30;99.90;;;;;;5035637;28;20260;-76
2022/04/01 08:30:39;;;;;;;7.30;3.57;;;0.10;99.90;;;;;;5035459;28;20215;-77
2022/04/01 08:33:05;;;;;;;9.10;4.13;;;0.10;99.90;;;;;;5035301;28;20791;-77
2022/04/01 08:35:31;;;;;;;5.77;3.90;;;0.30;99.90;;;;;;5035462;28;20264;-76
2022/04/01 08:37:58;;;;;;;5.07;3.53;;;0.30;99.90;;;;;;5035445;28;20542;-77
2022/04/01 08:40:24;;;;;;;10.00;4.20;;;0.20;99.90;;;;;;5053125;28;20197;-78
2022/04/01 08:42:50;;;;;;;9.50;4.30;;;0.30;99.90;;;;;;5052918;28;20176;-77
2022/04/01 08:45:17;;;;;;;5.70;4.10;;;0.30;99.90;;;;;;5035264;28;20625;-76
2022/04/01 08:47:43;;;;;;;5.80;4.00;;;0.40;99.90;;;;;;5035218;28;20247;-76
2022/04/01 08:50:09;;;;;;;8.20;3.40;;;0.20;99.90;;;;;;5034793;28;20213;-76
2022/04/01 08:52:35;;;;;;;7.97;4.03;;;0.30;99.90;;;;;;5034888;28;20174;-76
2022/04/01 08:55:06;;;;;;;6.40;4.47;;;0.40;99.90;;;;;;5034931;28;20173;-77
2022/04/01 08:57:39;;;;;;;8.33;4.17;;;0.40;99.90;;;;;;5034973;28;20457;-77
2022/04/01 09:00:25;;;;;;;6.47;3.73;;;0.40;99.90;;;;;;5035107;28;20193;-77
2022/04/01 09:02:59;;;;;;;9.70;4.33;;;0.40;99.90;;;;;;5020630;28;20185;-78
2022/04/01 09:05:25;;;;;;;7.30;3.90;;;0.40;99.90;;;;;;5034862;28;20175;-78
2022/04/01 09:08:08;;;;;;;8.63;4.37;;;0.30;99.90;;;;;;5034433;28;20189;-78
2022/04/01 09:10:54;;;;;;;7.97;4.43;;;0.40;99.90;;;;;;5034423;28;20220;-79
2022/04/01 09:13:22;;;;;;;7.63;4.20;;;0.40;99.90;;;;;;5034126;28;20672;-78
2022/04/01 09:15:49;;;;;;;5.90;3.40;;;0.40;99.90;;;;;;5034489;28;20188;-79
2022/04/01 09:18:33;;;;;;;8.83;4.33;;;0.30;99.90;;;;;;5034692;28;20173;-78
2022/04/01 09:20:59;;;;;;;8.57;3.90;;;0.40;99.90;;;;;;5034613;28;20177;-78
2022/04/01 09:23:25;;;;;;;8.57;4.17;;;0.40;99.90;;;;;;5033973;28;20278;-78
2022/04/01 09:25:52;;;;;;;9.37;3.93;;;0.40;99.90;;;;;;5034524;28;20173;-78
2022/04/01 09:28:27;;;;;;;8.23;4.17;;;0.40;99.90;;;;;;5052654;28;20541;-77
2022/04/01 09:31:06;;;;;;;6.87;4.50;;;0.40;99.90;;;;;;5034521;28;20230;-77
2022/04/01 09:33:54;;;;;;;9.50;4.17;;;0.50;99.90;;;;;;5034670;28;20227;-77
2022/04/01 09:36:27;;;;;;;9.27;4.33;;;0.50;99.90;;;;;;5034318;28;20677;-77
2022/04/01 09:39:01;;;;;;;6.30;3.43;;;0.40;99.90;;;;;;5034181;28;20207;-77
2022/04/01 09:41:31;;;;;;;8.57;4.30;;;0.40;99.90;;;;;;5034151;28;20176;-76
2022/04/01 09:44:01;;;;;;;7.27;4.60;;;0.40;99.90;;;;;;5034336;28;20661;-77
2022/04/01 09:46:27;;;;;;;7.83;3.90;;;0.50;99.90;;;;;;5033315;28;20587;-77
2022/04/01 09:48:57;;;;;;;9.13;4.20;;;0.50;99.90;;;;;;5033959;28;20239;-76
2022/04/01 09:51:24;;;;;;;9.37;4.07;;;0.50;99.90;;;;;;5033833;28;20732;-77
2022/04/01 09:53:53;;;;;;;6.17;4.00;;;0.60;99.90;;;;;;5034143;28;20311;-77
2022/04/01 09:56:45;;;;;;;8.37;3.93;;;0.60;99.90;;;;;;5033254;28;20191;-77
2022/04/01 09:59:16;;;;;;;18.83;6.07;;;0.70;99.90;;;;;;5033975;28;20201;-77
2022/04/01 10:01:43;;;;;;;8.70;3.70;;;0.70;99.90;;;;;;5033634;28;20318;-78
2022/04/01 10:04:10;;;;;;;8.97;4.80;;;0.60;99.90;;;;;;5051975;28;20279;-76
2022/04/01 10:06:37;;;;;;;12.50;4.40;;;0.60;99.90;;;;;;5033908;28;20169;-77
2022/04/01 10:09:10;;;;;;;5.47;2.70;;;0.70;99.90;;;;;;5034219;28;20682;-77
2022/04/01 10:11:37;;;;;;;8.30;3.87;;;0.60;99.90;;;;;;5033286;28;20544;-76
2022/04/01 10:14:08;;;;;;;6.43;4.13;;;0.70;99.90;;;;;;5034023;28;20192;-77
2022/04/01 10:16:35;;;;;;;7.30;3.70;;;0.70;99.90;;;;;;5034939;28;20219;-77
2022/04/01 10:19:06;;;;;;;7.10;4.23;;;0.70;99.90;;;;;;5037956;28;20217;-76
2022/04/01 10:21:34;;;;;;;9.67;3.90;;;0.70;99.90;;;;;;5037700;28;20243;-75
2022/04/01 10:24:36;;;;;;;5.20;3.20;;;0.70;99.90;;;;;;5037716;28;20197;-76
2022/04/01 10:27:29;;;;;;;6.43;3.43;;;0.70;99.90;;;;;;5020320;28;20185;-77
2022/04/01 10:29:57;;;;;;;9.77;4.17;;;0.70;99.90;;;;;;5037793;28;20189;-77
2022/04/01 10:32:35;;;;;;;9.73;3.97;;;0.80;99.90;;;;;;5037522;28;20305;-76
2022/04/01 10:35:03;;;;;;;11.97;4.33;;;0.80;99.90;;;;;;5037722;28;20169;-77
2022/04/01 10:37:32;;;;;;;9.77;4.40;;;0.80;99.90;;;;;;5038240;28;20180;-78
2022/04/01 10:40:16;;;;;;;11.57;4.13;;;0.70;99.90;;;;;;5037786;28;20269;-78
2022/04/01 10:42:42;;;;;;;6.13;3.80;;;0.70;99.90;;;;;;5037364;28;20205;-78
2022/04/01 10:45:22;;;;;;;10.53;4.67;;;0.80;99.90;;;;;;5037557;28;20170;-77
2022/04/01 10:51:39;;;;;;;10.90;4.77;;;0.90;99.90;;;;;;4974346;28;20235;-77
2022/04/01 10:54:12;;;;;;;8.80;5.13;;;0.90;99.90;;;;;;4974195;28;20215;-76
2022/04/01 10:56:39;;;;;;;9.20;4.20;;;0.80;99.90;;;;;;5024223;28;20242;-76
2022/04/01 10:59:08;;;;;;;6.67;4.47;;;0.90;99.90;;;;;;5037260;28;20199;-77
2022/04/01 11:01:36;;;;;;;9.30;4.17;;;0.80;99.90;;;;;;5037155;28;20204;-77
2022/04/01 11:04:07;;;;;;;9.57;4.70;;;0.90;99.90;;;;;;5037397;28;20204;-76
2022/04/01 11:06:52;;;;;;;8.13;3.87;;;0.80;99.90;;;;;;5037048;28;20203;-78
2022/04/01 11:09:57;;;;;;;8.73;4.00;;;0.90;99.90;;;;;;5054444;28;20432;-76
2022/04/01 11:12:49;;;;;;;10.57;5.30;;;0.90;99.90;;;;;;4938430;29;20177;-77
2022/04/01 11:15:18;;;;;;;8.27;4.90;;;1.00;99.90;;;;;;4953999;29;20232;-76
2022/04/01 11:17:44;;;;;;;7.87;4.50;;;0.90;99.90;;;;;;5011415;28;20198;-76
2022/04/01 11:20:25;;;;;;;8.87;4.60;;;0.80;99.90;;;;;;5036951;28;20231;-76
2022/04/01 11:22:54;;;;;;;8.07;3.93;;;0.90;99.90;;;;;;5036198;28;20642;-76
2022/04/01 11:25:23;;;;;;;7.87;3.87;;;0.80;99.90;;;;;;5036776;28;20174;-75
2022/04/01 11:27:59;;;;;;;9.73;4.63;;;0.80;99.90;;;;;;5053581;28;20173;-76
2022/04/01 11:30:26;;;;;;;6.47;4.37;;;1.00;99.90;;;;;;5036659;28;20650;-77
2022/04/01 11:33:10;;;;;;;8.63;4.80;;;0.90;99.90;;;;;;5036453;28;20295;-76
2022/04/01 11:35:42;;;;;;;12.23;4.70;;;1.00;99.90;;;;;;5036460;28;20178;-77
2022/04/01 11:38:13;;;;;;;8.90;4.97;;;1.10;99.90;;;;;;5036665;28;20256;-76
2022/04/01 11:40:40;;;;;;;6.03;4.43;;;1.20;99.90;;;;;;5036517;28;20204;-76
2022/04/01 11:43:10;;;;;;;10.00;5.10;;;1.30;99.90;;;;;;5036060;28;20205;-78
2022/04/01 11:45:57;;;;;;;6.90;4.33;;;1.30;99.90;;;;;;5036322;28;20260;-77
2022/04/01 11:48:35;;;;;;;12.43;5.87;;;1.40;99.90;;;;;;5035870;28;20224;-77
2022/04/01 11:51:09;;;;;;;12.37;4.20;;;1.40;99.90;;;;;;5036308;28;20176;-78
2022/04/01 11:53:43;;;;;;;9.13;4.60;;;1.40;99.90;;;;;;5036288;28;20643;-77
2022/04/01 11:56:10;;;;;;;6.70;4.20;;;1.40;99.90;;;;;;5036211;28;20176;-76
2022/04/01 11:58:49;;;;;;;10.30;4.50;;;1.40;99.90;;;;;;5036014;28;20182;-76
2022/04/01 12:01:19;;;;;;;11.37;5.20;;;1.60;99.90;;;;;;5035929;28;20269;-76
2022/04/01 12:03:45;;;;;;;9.20;4.67;;;1.60;99.90;;;;;;5036039;28;20247;-76
2022/04/01 12:08:55;;;;;;;9.60;4.67;;;1.50;99.90;;;;;;5053311;28;20202;-76
2022/04/01 12:11:20;;;;;;;10.10;4.73;;;1.50;99.90;;;;;;5035848;28;20594;-76
2022/04/01 12:13:53;;;;;;;13.03;4.80;;;1.60;99.90;;;;;;5035846;28;20654;-76
2022/04/01 12:16:21;;;;;;;11.40;5.17;;;1.70;99.90;;;;;;5035683;28;20182;-77
2022/04/01 12:18:49;;;;;;;8.73;4.43;;;1.80;99.90;;;;;;5035733;28;20201;-77
2022/04/01 12:21:22;;;;;;;8.80;4.50;;;1.70;99.90;;;;;;5035535;28;20261;-78
2022/04/01 12:23:49;;;;;;;10.57;5.20;;;1.70;99.90;;;;;;5035258;28;20259;-77
2022/04/01 12:26:20;;;;;;;8.07;4.33;;;1.70;99.90;;;;;;5035803;28;20171;-77
2022/04/01 12:28:49;;;;;;;7.50;4.10;;;1.60;99.90;;;;;;5035757;28;20723;-77
2022/04/01 12:31:23;;;;;;;9.93;4.77;;;1.60;99.90;;;;;;5035607;28;20181;-77
2022/04/01 12:33:51;;;;;;;9.17;4.30;;;1.70;99.90;;;;;;5035563;28;20604;-77
2022/04/01 12:36:31;;;;;;;11.10;4.93;;;1.70;99.90;;;;;;5035874;28;20268;-77
2022/04/01 12:39:15;;;;;;;13.03;4.60;;;1.80;99.90;;;;;;5034390;28;20192;-77
2022/04/01 12:41:51;;;;;;;10.83;5.70;;;1.90;99.90;;;;;;5033310;28;20183;-77
2022/04/01 12:44:17;;;;;;;12.47;4.80;;;1.80;99.90;;;;;;5034843;28;20224;-77
2022/04/01 12:46:48;;;;;;;8.20;5.40;;;1.70;99.90;;;;;;5033782;28;20168;-76
2022/04/01 12:49:21;;;;;;;10.83;4.97;;;1.80;99.90;;;;;;5034817;28;20207;-77
2022/04/01 12:51:59;;;;;;;12.37;4.87;;;1.80;99.90;;;;;;5035026;28;20263;-76
2022/04/01 12:54:38;;;;;;;12.00;4.67;;;1.70;99.90;;;;;;5035182;28;20550;-76
2022/04/01 12:57:06;;;;;;;12.83;5.63;;;1.60;99.90;;;;;;5033507;28;20413;-77
2022/04/01 12:59:40;;;;;;;10.47;4.73;;;1.60;99.90;;;;;;5033246;28;20660;-76
2022/04/01 13:02:15;;;;;;;8.43;4.27;;;1.40;99.90;;;;;;5033078;28;20170;-76
2022/04/01 13:04:42;;;;;;;12.80;5.40;;;1.40;99.90;;;;;;5033110;28;20201;-75
2022/04/01 13:07:19;;;;;;;8.90;5.43;;;1.50;99.90;;;;;;5032980;28;20196;-75
2022/04/01 13:09:53;;;;;;;15.33;5.67;;;1.60;99.90;;;;;;5033217;28;20281;-76
2022/04/01 13:12:23;;;;;;;8.33;5.10;;;1.40;99.90;;;;;;5034642;28;20175;-76
2022/04/01 13:14:57;;;;;;;12.13;5.87;;;1.30;99.90;;;;;;5052013;28;20285;-76
2022/04/01 13:17:23;;;;;;;7.67;4.97;;;1.40;99.90;;;;;;5034750;28;20177;-76
2022/04/01 13:19:49;;;;;;;9.27;5.17;;;1.40;99.90;;;;;;5034445;28;20720;-76
2022/04/01 13:22:14;;;;;;;11.03;5.13;;;1.40;99.90;;;;;;5034602;28;20628;-76